Accueil
METAR-TAF:

METAR-TAF

Aéroports :

Malé, Maldives

Aéroport international de Malé

latitude: 04-12N, longitude: 073-32E, altitude: 2 m

Observation

Le bulletin a été fait il y a 59 minutes, à 23:00 UTC
Vent 5 kt de ouest/sud-ouest
Température 29°C
Humidité 84%
Pression 1008 hPa
Visibilité 10 km ou plus
Nuages épars à une hauteur de 1700 ft, Cumulus congestus.
Nuages fragmentés à une hauteur de 11000 ft

METAR: VRMM 202300Z 25005KT 9999 SCT017TCU BKN110 29/26 Q1008 NOSIG

Heure: 04:59 (23:59 UTC)

Prévision

Le bulletin a été fait il y a 59 minutes, à 23:00 UTC
Prévision valable du 21 à 00 UTC au 22 à 06 UTC
Vent 6 kt de ouest/sud-ouest
Visibilité 10 km ou plus
Quelques nuages à une hauteur de 1700 ft
Temporairement
du 21 à 00 UTC au 21 à 06 UTC
Visibilité: 5000 m
Quelques nuages à une hauteur de 1700 ft, Cumulonimbus.
faibles averses de pluie

TAF: VRMM 202300Z 2100/2206 25006KT 9999 FEW017 TEMPO 2100/2106 5000 -SHRA FEW017CB

Observations et prévisions météorologiques de plus de 4000 aéroports (messages METAR et TAF).

Les stations disponibles sont représentées par des disques jaunes et rouges sur la carte.

Passer la souris dessus pour voir le nom de la station.

Cliquer dessus pour voir les observations et prévisions météorologiques.

Pour changer de carte: cliquez sur les boutons verts avec une croix noire pour zoomer, sur le bouton vert avec un tiret pour effectuer un zoom arrière, ou sur les flèches vertes pour les cartes adjacentes.


METAR-TAF: